createdAt,value
2018-09-04T00:00:17.026Z,15.10
2018-09-04T00:05:20.778Z,13.83
2018-09-04T00:10:24.601Z,14.00
2018-09-04T00:15:28.220Z,14.97
2018-09-04T00:20:31.818Z,20.20
2018-09-04T00:25:35.541Z,14.40
2018-09-04T00:30:39.041Z,14.17
2018-09-04T00:35:42.776Z,14.93
2018-09-04T00:40:46.278Z,20.97
2018-09-04T00:45:50.026Z,14.15
2018-09-04T00:50:53.548Z,15.27
2018-09-04T00:55:57.005Z,15.00
2018-09-04T01:01:00.432Z,13.70
2018-09-04T01:06:04.189Z,15.00
2018-09-04T01:11:07.723Z,14.87
2018-09-04T01:16:11.318Z,13.13
2018-09-04T01:21:14.780Z,13.90
2018-09-04T01:26:18.853Z,14.10
2018-09-04T01:31:22.332Z,14.93
2018-09-04T01:36:25.781Z,14.43
2018-09-04T01:41:29.206Z,15.37
2018-09-04T01:46:32.709Z,13.93
2018-09-04T01:51:36.170Z,13.40
2018-09-04T01:56:39.727Z,15.30
2018-09-04T02:01:43.181Z,12.53
2018-09-04T02:06:46.979Z,15.00
2018-09-04T02:11:50.435Z,14.93
2018-09-04T02:16:53.886Z,15.73
2018-09-04T02:21:57.392Z,12.60
2018-09-04T02:27:00.853Z,15.63
2018-09-04T02:32:04.356Z,12.87
2018-09-04T02:37:07.922Z,13.30
2018-09-04T02:42:11.381Z,12.67
2018-09-04T02:47:14.840Z,13.80
2018-09-04T02:52:18.292Z,11.73
2018-09-04T02:57:21.956Z,12.73
2018-09-04T03:02:25.623Z,14.53
2018-09-04T03:07:29.072Z,15.17
2018-09-04T03:12:32.752Z,14.17
2018-09-04T03:17:36.293Z,13.73
2018-09-04T03:22:39.916Z,11.97
2018-09-04T03:27:43.501Z,13.50
2018-09-04T03:32:46.999Z,12.60
2018-09-04T03:37:50.461Z,12.80
2018-09-04T03:42:53.949Z,13.50
2018-09-04T03:47:57.448Z,10.87
2018-09-04T03:53:00.886Z,10.63
2018-09-04T03:58:04.619Z,14.33
2018-09-04T04:03:08.174Z,14.97
2018-09-04T04:08:11.790Z,11.93
2018-09-04T04:13:15.253Z,12.20
2018-09-04T04:18:18.714Z,13.10
2018-09-04T04:23:22.292Z,15.37
2018-09-04T04:28:26.203Z,12.40
2018-09-04T04:33:29.873Z,13.73
2018-09-04T04:38:33.330Z,17.07
2018-09-04T04:43:36.785Z,16.43
2018-09-04T04:48:40.486Z,17.23
2018-09-04T04:53:44.107Z,11.90
2018-09-04T04:58:47.696Z,14.00
2018-09-04T05:03:51.173Z,12.63
2018-09-04T05:08:54.618Z,13.70
2018-09-04T05:13:58.143Z,15.40
2018-09-04T05:19:01.786Z,13.53
2018-09-04T05:24:05.261Z,14.70
2018-09-04T05:29:08.729Z,16.42
2018-09-04T05:34:12.243Z,13.27
2018-09-04T05:39:15.730Z,13.03
2018-09-04T05:44:19.198Z,14.50
2018-09-04T05:49:26.766Z,11.73
2018-09-04T05:54:30.205Z,11.63
2018-09-04T05:59:33.665Z,12.80
2018-09-04T06:04:37.297Z,16.17
2018-09-04T06:09:40.824Z,15.43
2018-09-04T06:14:44.317Z,14.17
2018-09-04T06:19:47.909Z,14.43
2018-09-04T06:24:51.382Z,14.40
2018-09-04T06:29:55.175Z,14.60
2018-09-04T06:34:58.668Z,15.57
2018-09-04T06:40:02.240Z,14.80
2018-09-04T06:45:05.722Z,14.17
2018-09-04T06:50:09.304Z,13.10
2018-09-04T06:55:12.789Z,18.77
2018-09-04T07:00:16.281Z,16.63
2018-09-04T07:05:19.893Z,15.40
2018-09-04T07:10:23.428Z,13.17
2018-09-04T07:15:26.932Z,18.03
2018-09-04T07:20:30.385Z,15.00
2018-09-04T07:25:34.037Z,15.63
2018-09-04T07:30:37.672Z,15.27
2018-09-04T07:35:41.380Z,15.10
2018-09-04T07:40:44.930Z,16.13
2018-09-04T07:45:48.486Z,13.63
2018-09-04T07:50:52.105Z,13.60
2018-09-04T07:55:55.963Z,12.73
2018-09-04T08:00:59.471Z,12.80
2018-09-04T08:06:02.951Z,13.63
2018-09-04T08:11:06.926Z,13.93
2018-09-04T08:16:10.400Z,12.40
2018-09-04T08:21:13.829Z,11.73
2018-09-04T08:26:17.284Z,14.43
2018-09-04T08:31:21.093Z,12.83
2018-09-04T08:36:24.489Z,15.77
2018-09-04T08:41:27.957Z,11.87
2018-09-04T08:46:31.739Z,12.13
2018-09-04T08:51:35.367Z,12.77
2018-09-04T08:56:38.841Z,13.53
2018-09-04T09:01:42.289Z,14.77
2018-09-04T09:06:45.773Z,13.93
2018-09-04T09:11:49.332Z,15.87
2018-09-04T09:16:52.830Z,15.00
2018-09-04T09:21:56.258Z,13.03
2018-09-04T09:26:59.749Z,19.53
2018-09-04T09:32:03.269Z,12.50
2018-09-04T09:37:07.319Z,14.97
2018-09-04T09:42:13.963Z,15.37
2018-09-04T09:47:17.409Z,13.97
2018-09-04T09:52:20.848Z,15.03
2018-09-04T09:57:24.457Z,13.07
2018-09-04T10:02:33.361Z,10.83
2018-09-04T10:07:37.081Z,16.03
2018-09-04T10:12:40.573Z,14.37
2018-09-04T10:17:44.422Z,14.90
2018-09-04T10:22:47.903Z,14.80
2018-09-04T10:27:51.712Z,17.50
2018-09-04T10:32:55.133Z,25.33
2018-09-04T10:37:58.668Z,16.70
2018-09-04T10:43:02.294Z,19.40
2018-09-04T10:48:06.090Z,14.53
2018-09-04T10:53:09.862Z,17.30
2018-09-04T10:58:13.393Z,15.90
2018-09-04T11:03:16.968Z,14.90
2018-09-04T11:08:20.828Z,12.20
2018-09-04T11:13:24.286Z,16.60
2018-09-04T11:18:27.880Z,12.60
2018-09-04T11:23:31.328Z,14.30
2018-09-04T11:28:37.364Z,13.45
2018-09-04T11:33:40.920Z,12.95
2018-09-04T11:38:44.360Z,17.15
2018-09-04T11:43:47.840Z,12.63
2018-09-04T11:48:51.335Z,12.07
2018-09-04T11:53:54.821Z,11.03
2018-09-04T11:58:58.264Z,11.97
2018-09-04T12:04:01.694Z,14.43
2018-09-04T12:09:06.560Z,13.83
2018-09-04T12:14:10.113Z,10.28
2018-09-04T12:19:13.644Z,12.47
2018-09-04T12:24:17.125Z,10.97
2018-09-04T12:29:20.645Z,12.43
2018-09-04T12:34:24.140Z,11.53
2018-09-04T12:39:27.577Z,12.17
2018-09-04T12:44:31.019Z,13.50
2018-09-04T12:49:34.501Z,11.30
2018-09-04T12:54:37.991Z,10.40
2018-09-04T12:59:41.670Z,15.97
2018-09-04T13:04:45.825Z,14.37
2018-09-04T13:09:49.273Z,11.10
2018-09-04T13:14:52.756Z,10.77
2018-09-04T13:19:56.220Z,12.23
2018-09-04T13:24:59.759Z,11.10
2018-09-04T13:30:03.740Z,13.68
2018-09-04T13:35:07.880Z,12.88
2018-09-04T13:40:11.515Z,10.90
2018-09-04T13:45:14.985Z,11.30
2018-09-04T13:50:18.466Z,11.33
2018-09-04T13:55:21.918Z,12.80
2018-09-04T14:00:26.291Z,8.93
2018-09-04T14:05:29.760Z,11.37
2018-09-04T14:10:33.232Z,10.13
2018-09-04T14:15:36.880Z,10.28
2018-09-04T14:20:40.528Z,10.73
2018-09-04T14:25:44.000Z,9.88
2018-09-04T14:30:48.459Z,10.83
2018-09-04T14:35:52.046Z,11.57
2018-09-04T14:40:55.435Z,9.00
2018-09-04T14:45:59.124Z,9.30
2018-09-04T14:51:02.962Z,12.93
2018-09-04T14:56:06.403Z,7.77
2018-09-04T15:01:10.080Z,8.18
2018-09-04T15:06:13.582Z,8.43
2018-09-04T15:11:17.019Z,10.90
2018-09-04T15:16:20.473Z,9.80
2018-09-04T15:21:24.178Z,7.00
2018-09-04T15:26:28.136Z,7.40
2018-09-04T15:31:31.851Z,7.72
2018-09-04T15:36:35.652Z,10.72
2018-09-04T15:41:39.239Z,6.73
2018-09-04T15:46:42.712Z,7.77
2018-09-04T15:51:46.189Z,6.93
2018-09-04T15:56:49.732Z,7.67
2018-09-04T16:01:53.388Z,10.03
2018-09-04T16:06:57.232Z,7.80
2018-09-04T16:12:00.696Z,8.40
2018-09-04T16:17:04.190Z,8.00
2018-09-04T16:22:07.855Z,7.63
2018-09-04T16:27:11.340Z,8.17
2018-09-04T16:32:14.820Z,7.05
2018-09-04T16:37:18.330Z,7.60
2018-09-04T16:42:21.816Z,10.17
2018-09-04T16:47:25.489Z,8.13
2018-09-04T16:52:28.908Z,7.83
2018-09-04T16:57:32.323Z,10.18
2018-09-04T17:02:35.809Z,8.95
2018-09-04T17:07:39.291Z,8.20
2018-09-04T17:12:43.014Z,6.62
2018-09-04T17:17:46.977Z,6.03
2018-09-04T17:22:50.519Z,8.20
2018-09-04T17:27:53.974Z,7.87
2018-09-04T17:32:58.077Z,10.47
2018-09-04T17:38:05.399Z,12.50
2018-09-04T17:43:10.043Z,7.55
2018-09-04T17:48:13.662Z,6.37
2018-09-04T17:53:17.560Z,7.87
2018-09-04T17:58:22.586Z,6.30
2018-09-04T18:03:27.425Z,6.37
2018-09-04T18:08:31.120Z,7.00
2018-09-04T18:13:34.698Z,5.97
2018-09-04T18:18:38.813Z,7.58
2018-09-04T18:23:44.290Z,6.87
2018-09-04T18:28:48.637Z,9.23
2018-09-04T18:33:52.317Z,8.35
2018-09-04T18:38:55.857Z,6.62
2018-09-04T18:43:59.359Z,8.33
2018-09-04T18:49:04.659Z,9.13
2018-09-04T18:54:08.803Z,6.67
2018-09-04T18:59:12.635Z,8.27
2018-09-04T19:04:18.207Z,8.83
2018-09-04T19:09:23.887Z,6.43
2018-09-04T19:14:28.608Z,7.00
2018-09-04T19:20:04.709Z,8.70
2018-09-04T19:25:11.874Z,8.88
2018-09-04T19:30:16.966Z,7.60
2018-09-04T19:35:21.891Z,8.28
2018-09-04T19:40:27.452Z,7.15
2018-09-04T19:45:33.371Z,8.57
2018-09-04T19:50:40.071Z,7.95
2018-09-04T19:55:45.857Z,7.58
2018-09-04T20:00:50.933Z,7.37
2018-09-04T20:05:56.558Z,10.53
2018-09-04T20:11:00.381Z,9.08
2018-09-04T20:16:06.192Z,7.87
2018-09-04T20:21:12.066Z,5.87
2018-09-04T20:26:15.920Z,7.05
2018-09-04T20:31:19.788Z,6.60
2018-09-04T20:36:23.311Z,6.92
2018-09-04T20:41:27.206Z,7.95
2018-09-04T20:46:30.786Z,6.95
2018-09-04T20:51:34.644Z,9.00
2018-09-04T20:56:38.389Z,12.55
2018-09-04T21:01:52.970Z,7.10
2018-09-04T21:06:56.233Z,6.12
2018-09-04T21:12:00.036Z,8.68
2018-09-04T21:17:04.110Z,6.23
2018-09-04T21:22:07.728Z,6.77
2018-09-04T21:27:11.295Z,6.03
2018-09-04T21:32:14.806Z,5.67
2018-09-04T21:37:18.675Z,6.20
2018-09-04T21:42:22.399Z,5.25
2018-09-04T21:47:26.604Z,6.90
2018-09-04T21:52:30.855Z,6.22
2018-09-04T21:57:34.573Z,7.00
2018-09-04T22:02:38.004Z,7.60
2018-09-04T22:07:41.967Z,6.80
2018-09-04T22:12:45.951Z,5.77
2018-09-04T22:17:49.947Z,5.08
2018-09-04T22:22:54.301Z,6.40
2018-09-04T22:27:58.101Z,5.70
2018-09-04T22:33:01.946Z,5.60
2018-09-04T22:38:05.932Z,9.23
2018-09-04T22:43:09.757Z,5.83
2018-09-04T22:48:13.532Z,7.78
2018-09-04T22:53:17.133Z,6.72
2018-09-04T22:58:21.057Z,6.57
2018-09-04T23:03:24.612Z,5.58
2018-09-04T23:08:28.149Z,6.05
2018-09-04T23:13:31.636Z,6.08
2018-09-04T23:18:35.077Z,7.45
2018-09-04T23:23:38.555Z,5.40
2018-09-04T23:28:41.984Z,4.92
2018-09-04T23:33:45.690Z,10.28
2018-09-04T23:38:49.163Z,5.20
2018-09-04T23:43:52.658Z,6.27
2018-09-04T23:48:56.362Z,6.07
2018-09-04T23:53:59.873Z,6.28
2018-09-04T23:59:03.441Z,5.87
